Terminal Aerodrome Forecast
Issued by NWS Tampa Bay Area, FL

Home | Current Version | Previous Version | Text Only | Print | Product List | Glossary On
Versions: 1 2 3 4 5 6 7 8 9 10 11 12 13 14 15 16 17 18 19 20
000
FTUS42 KTBW 292326
TAFSRQ
TAF
KSRQ 292326Z 3000/3024 28004KT P6SM BKN250
     FM300900 24004KT P6SM VCSH SCT035
     FM301500 25008KT P6SM VCTS SCT035CB
     FM301800 25010KT P6SM VCSH SCT050 BKN090=

USA.gov is the U.S. government's official web portal to all federal, state and local government web resources and services.